Hopemont, West Virginia
Current Conditions -  °F | °C
As of 11:35 AM on Friday 21 Nov 2014 (Local Time) from K2G4 Reporting Station
Scattered Clouds Scattered Clouds  
Wind Chill:   Ceiling: Unl
Heat Index: 18°   Visibility: 10mi
Dew Point:   Wind: 9mph
Humidity: 49%   Direction: 300°WNW
Pressure: 30.3"   Gusts: NA
Location:  39.4346°N, 79.5727°W
Report Text: K2G4 211635Z AUTO 30008KT 10SM SCT022 SCT028 M08/M17 A3030 RMK AO1
Loading
Personal Weather Stations






























Interactive Weather Map New forecast layout! Learn more

10-Day Weather Forecast

Advertisements
Track Severe Weather on mobile